Time;durP1;ratioP1;P1;durP2;ratioP2;P2;SDS_P1;SDS_P2;PMS_P1;PMS_P2;Temp;Humidity;BMP_temperature;BMP_pressure;BME280_temperature;BME280_humidity;BME280_pressure;Samples;Min_cycle;Max_cycle;Signal;HPM_P1;HPM_P2
2023/05/31 00:07:33;;;;;;;0.33;0.20;;;;;;;14.02;52.10;102102.41;15669152;28;20532;-47
2023/05/31 00:15:07;;;;;;;0.95;0.57;;;;;;;13.81;52.74;102103.31;15661750;28;20052;-49
2023/05/31 00:22:41;;;;;;;0.85;0.65;;;;;;;13.53;54.37;102103.34;15663625;28;20041;-49
2023/05/31 00:30:14;;;;;;;0.85;0.47;;;;;;;13.20;54.94;102111.13;15642119;28;20132;-50
2023/05/31 00:37:49;;;;;;;0.25;0.25;;;;;;;13.03;55.71;102100.59;15645252;28;20493;-51
2023/05/31 00:45:21;;;;;;;0.70;0.60;;;;;;;13.05;55.54;102103.09;15674262;28;20124;-47
2023/05/31 00:52:57;;;;;;;1.03;0.47;;;;;;;12.92;55.58;102111.09;15680715;28;20132;-49
2023/05/31 01:00:31;;;;;;;1.48;0.38;;;;;;;12.74;57.19;102101.56;15682669;28;20279;-49
2023/05/31 01:08:05;;;;;;;2.28;0.57;;;;;;;12.71;57.55;102101.94;15666712;28;20053;-47
2023/05/31 01:15:44;;;;;;;0.98;0.50;;;;;;;12.63;57.47;102109.31;15651545;28;20128;-47
2023/05/31 01:23:35;;;;;;;0.43;0.43;;;;;;;12.29;57.68;102101.88;15667219;28;20413;-50
2023/05/31 01:31:17;;;;;;;0.75;0.63;;;;;;;12.15;58.23;102109.75;15652502;28;20041;-48
2023/05/31 01:38:49;;;;;;;0.63;0.38;;;;;;;12.06;59.16;102113.56;15658384;28;20051;-48
2023/05/31 01:46:24;;;;;;;0.23;0.23;;;;;;;12.06;58.84;102121.66;15664074;28;20041;-48
2023/05/31 01:53:57;;;;;;;0.32;0.32;;;;;;;11.77;60.03;102113.56;15674688;28;20041;-51
2023/05/31 02:01:32;;;;;;;0.50;0.50;;;;;;;11.70;59.58;102108.91;15636563;28;20525;-48
2023/05/31 02:09:06;;;;;;;0.20;0.20;;;;;;;11.57;59.78;102105.19;15664012;28;20041;-48
2023/05/31 02:16:40;;;;;;;0.20;0.20;;;;;;;11.41;60.23;102103.47;15673780;28;20041;-48
2023/05/31 02:24:15;;;;;;;0.32;0.32;;;;;;;11.24;60.83;102100.94;15667136;28;20155;-48
2023/05/31 02:31:49;;;;;;;0.10;0.10;;;;;;;11.30;60.57;102110.13;15646828;28;20044;-48
2023/05/31 02:39:22;;;;;;;1.23;0.63;;;;;;;10.91;61.90;102108.44;15654197;28;20049;-47
2023/05/31 02:46:57;;;;;;;;;;;;;;;11.20;60.69;102107.69;15652465;28;20487;-49
2023/05/31 02:54:30;;;;;;;0.10;0.10;;;;;;;10.93;61.74;102113.63;15623614;28;19928;-49
2023/05/31 03:02:06;;;;;;;8.68;0.47;;;;;;;10.97;61.47;102118.44;15616388;28;20038;-48
2023/05/31 03:10:14;;;;;;;0.05;0.05;;;;;;;10.91;61.88;102108.44;15657659;28;20033;-49
2023/05/31 03:17:49;;;;;;;1.08;0.43;;;;;;;11.02;61.15;102106.34;15661111;28;20064;-48
2023/05/31 03:25:22;;;;;;;2.90;1.25;;;;;;;11.01;61.55;102107.34;15629571;28;20392;-47
2023/05/31 03:32:57;;;;;;;0.70;0.53;;;;;;;10.98;61.26;102105.84;15652526;28;20128;-51
2023/05/31 03:40:30;;;;;;;0.45;0.45;;;;;;;11.18;61.33;102098.13;15635710;28;20379;-49
2023/05/31 03:48:04;;;;;;;0.27;0.27;;;;;;;11.24;61.28;102097.44;15638707;28;20127;-47
2023/05/31 03:55:37;;;;;;;0.10;0.10;;;;;;;11.54;60.38;102092.94;15673414;28;20036;-47
2023/05/31 04:03:13;;;;;;;0.17;0.17;;;;;;;11.04;62.67;102102.44;15653584;28;20098;-50
2023/05/31 04:10:47;;;;;;;0.70;0.70;;;;;;;11.83;60.75;102092.16;15651322;28;20052;-49
2023/05/31 04:18:22;;;;;;;0.30;0.30;;;;;;;12.16;60.02;102094.44;15651041;28;20083;-49
2023/05/31 04:25:55;;;;;;;0.75;0.47;;;;;;;12.41;59.81;102098.50;15676493;28;20118;-50
2023/05/31 04:33:31;;;;;;;0.38;0.13;;;;;;;12.64;58.56;102100.22;15757262;23;20049;-48
2023/05/31 04:41:08;;;;;;;0.52;0.32;;;;;;;13.12;56.58;102108.56;15714392;28;20132;-49
2023/05/31 04:48:42;;;;;;;0.30;0.30;;;;;;;13.41;56.13;102102.19;15674662;28;20072;-48
2023/05/31 04:56:18;;;;;;;0.52;0.47;;;;;;;13.62;55.77;102107.56;15687674;28;20041;-47
2023/05/31 05:03:53;;;;;;;0.30;0.30;;;;;;;13.79;55.09;102111.59;15664784;28;20072;-51
2023/05/31 05:11:26;;;;;;;0.28;0.13;;;;;;;14.33;53.66;102106.50;15680626;28;20432;-49
2023/05/31 05:19:00;;;;;;;0.63;0.10;;;;;;;15.06;52.71;102107.53;15688538;28;20083;-48
2023/05/31 05:26:38;;;;;;;0.10;0.10;;;;;;;15.49;50.66;102105.25;15679217;28;20040;-49
2023/05/31 05:34:12;;;;;;;1.55;0.52;;;;;;;16.18;49.61;102103.03;15683029;28;20036;-50
2023/05/31 05:41:46;;;;;;;6.15;0.73;;;;;;;16.61;48.02;102097.03;15672316;28;20137;-50
2023/05/31 05:49:21;;;;;;;;;;;;;;;17.21;46.45;102097.50;15683523;28;20037;-50
2023/05/31 05:56:54;;;;;;;0.40;0.40;;;;;;;17.52;45.75;102088.44;15678193;28;19920;-52
2023/05/31 06:04:31;;;;;;;1.17;0.45;;;;;;;17.79;44.26;102106.16;15651328;28;20458;-50
2023/05/31 06:12:06;;;;;;;0.40;0.35;;;;;;;19.55;41.36;102103.31;15656130;28;20049;-51
2023/05/31 06:19:45;;;;;;;0.82;0.35;;;;;;;19.11;41.73;102100.03;15670320;28;20124;-49
2023/05/31 06:27:18;;;;;;;0.88;0.32;;;;;;;18.81;41.45;102095.50;15676829;28;20489;-51
2023/05/31 06:34:53;;;;;;;0.38;0.30;;;;;;;19.60;41.70;102095.28;15697744;28;20136;-48
2023/05/31 06:42:26;;;;;;;0.73;0.35;;;;;;;19.89;40.90;102107.09;15707796;28;20405;-51
2023/05/31 06:50:07;;;;;;;0.70;0.50;;;;;;;20.42;39.84;102097.81;15678772;28;20045;-48
2023/05/31 06:57:52;;;;;;;3.17;0.43;;;;;;;20.61;38.57;102098.47;15689536;28;20036;-53
2023/05/31 07:05:26;;;;;;;;;;;;;;;21.92;38.06;102098.19;15671769;28;20041;-51
2023/05/31 07:13:00;;;;;;;0.40;0.20;;;;;;;21.82;36.60;102089.81;15677012;28;20425;-50
2023/05/31 07:20:36;;;;;;;10.63;0.57;;;;;;;23.48;33.96;102081.97;15646504;28;20079;-48
2023/05/31 07:28:11;;;;;;;0.93;0.50;;;;;;;23.99;33.60;102074.88;15669882;28;20539;-48
2023/05/31 07:35:46;;;;;;;0.10;0.10;;;;;;;23.85;32.25;102057.28;15665389;28;20037;-50
2023/05/31 07:43:20;;;;;;;1.58;0.47;;;;;;;25.53;31.21;102052.00;15679480;28;20036;-49
2023/05/31 07:50:55;;;;;;;4.03;0.25;;;;;;;24.56;30.07;102048.47;15679462;28;20045;-50
2023/05/31 07:58:28;;;;;;;1.05;0.47;;;;;;;24.10;29.97;102053.78;15665725;28;20047;-49
2023/05/31 08:06:02;;;;;;;1.38;0.40;;;;;;;23.03;32.18;102053.97;15643334;28;20140;-49
2023/05/31 08:13:35;;;;;;;0.50;0.28;;;;;;;24.19;31.87;102049.44;15683760;28;20049;-51
2023/05/31 08:21:09;;;;;;;0.38;0.28;;;;;;;24.62;30.89;102045.47;15672922;28;20418;-52
2023/05/31 08:28:42;;;;;;;2.58;0.20;;;;;;;25.26;31.38;102049.56;15681819;28;20458;-52
2023/05/31 08:36:17;;;;;;;0.40;0.30;;;;;;;24.34;29.08;102034.94;15652600;28;20528;-52
2023/05/31 08:43:50;;;;;;;0.25;0.10;;;;;;;24.30;31.22;102031.09;15656919;28;20222;-50
2023/05/31 08:51:25;;;;;;;1.25;0.40;;;;;;;24.95;29.86;102040.53;15683134;28;20049;-51
2023/05/31 08:58:59;;;;;;;0.43;0.35;;;;;;;24.84;29.01;102042.44;15681186;28;20052;-52
2023/05/31 09:06:34;;;;;;;0.73;0.40;;;;;;;25.35;28.56;102036.91;15682610;28;20041;-48
2023/05/31 09:14:08;;;;;;;3.33;0.50;;;;;;;24.97;27.51;102015.53;15671052;28;20135;-50
2023/05/31 09:21:44;;;;;;;0.43;0.20;;;;;;;25.66;27.68;102018.41;15686881;28;20106;-53
2023/05/31 09:29:18;;;;;;;0.60;0.50;;;;;;;25.21;27.80;102015.78;15685820;28;20072;-50
2023/05/31 09:36:52;;;;;;;1.05;0.30;;;;;;;26.55;27.44;102007.50;15683187;28;20052;-49
2023/05/31 09:44:27;;;;;;;1.27;0.57;;;;;;;27.12;27.70;101989.38;15664456;28;20056;-50
2023/05/31 09:52:01;;;;;;;0.50;0.20;;;;;;;24.97;26.68;101985.31;15677543;28;20029;-51
2023/05/31 09:59:34;;;;;;;0.43;0.20;;;;;;;24.76;27.60;101988.06;15686855;28;20049;-53
2023/05/31 10:07:09;;;;;;;0.10;0.10;;;;;;;26.04;28.71;101982.22;15674023;28;20083;-51
2023/05/31 10:14:47;;;;;;;0.45;0.20;;;;;;;25.09;27.23;101974.88;15684802;28;20052;-48
2023/05/31 10:22:23;;;;;;;1.38;0.22;;;;;;;27.20;25.91;101963.13;15685676;28;20045;-50
2023/05/31 10:30:03;;;;;;;2.50;0.52;;;;;;;26.64;24.90;101960.91;15668824;22;20049;-48
2023/05/31 10:37:42;;;;;;;1.55;0.63;;;;;;;26.30;24.20;101947.94;15676782;28;20473;-50
2023/05/31 10:45:19;;;;;;;2.58;0.30;;;;;;;27.49;23.74;101934.66;15679086;28;20075;-48
2023/05/31 10:53:08;;;;;;;1.13;0.50;;;;;;;27.52;25.22;101934.06;15673667;28;20075;-49
2023/05/31 11:00:42;;;;;;;0.10;0.10;;;;;;;28.02;23.80;101928.97;15659871;28;20083;-52
2023/05/31 11:08:17;;;;;;;0.73;0.30;;;;;;;27.96;24.98;101929.06;15677475;28;20299;-49
2023/05/31 11:15:49;;;;;;;0.35;0.20;;;;;;;28.45;23.87;101915.91;15659323;28;20049;-51
2023/05/31 11:23:30;;;;;;;1.48;0.25;;;;;;;28.84;24.42;101912.69;15658284;28;20044;-53
2023/05/31 11:31:03;;;;;;;0.60;0.33;;;;;;;28.85;25.19;101906.03;15658105;28;20041;-49
2023/05/31 11:38:37;;;;;;;0.65;0.38;;;;;;;28.39;23.65;101900.50;15675361;28;20128;-52
2023/05/31 11:46:10;;;;;;;0.40;0.20;;;;;;;28.51;24.72;101892.56;15655365;28;20136;-50
2023/05/31 11:53:44;;;;;;;1.60;0.45;;;;;;;27.83;25.17;101887.59;15650774;28;20033;-52
2023/05/31 12:01:17;;;;;;;0.20;0.20;;;;;;;27.87;23.75;101886.69;15672625;28;20398;-50
2023/05/31 12:08:54;;;;;;;2.28;0.28;;;;;;;29.40;22.61;101877.56;15666460;28;20490;-52
2023/05/31 12:16:27;;;;;;;0.75;0.25;;;;;;;28.69;22.00;101866.00;15673480;28;20591;-50
2023/05/31 12:24:11;;;;;;;0.38;0.20;;;;;;;28.07;23.33;101855.22;15673167;28;20045;-53
2023/05/31 12:31:45;;;;;;;0.50;0.30;;;;;;;29.05;21.35;101851.50;15676099;28;20082;-51
2023/05/31 12:39:21;;;;;;;0.50;0.32;;;;;;;30.53;22.58;101848.03;15675662;28;20089;-48
2023/05/31 12:47:00;;;;;;;0.73;0.20;;;;;;;31.15;19.56;101825.75;15678824;28;20058;-52
2023/05/31 12:54:35;;;;;;;0.60;0.20;;;;;;;30.65;18.65;101839.94;15652381;28;20044;-51
2023/05/31 13:02:08;;;;;;;0.22;0.10;;;;;;;31.03;19.58;101820.03;15659020;28;20060;-51
2023/05/31 13:09:45;;;;;;;0.10;0.10;;;;;;;29.51;22.03;101825.59;15654982;28;20056;-51
2023/05/31 13:17:19;;;;;;;0.40;0.20;;;;;;;29.93;19.68;101808.53;15663678;28;20040;-49
2023/05/31 13:24:56;;;;;;;0.45;0.22;;;;;;;28.27;22.05;101809.84;15655551;28;20041;-48
2023/05/31 13:32:29;;;;;;;0.10;0.10;;;;;;;28.44;21.73;101796.28;15667829;28;20049;-49
2023/05/31 13:40:04;;;;;;;0.40;0.20;;;;;;;28.02;22.30;101779.94;15684356;28;20068;-49
2023/05/31 13:47:37;;;;;;;0.45;0.17;;;;;;;27.53;20.33;101771.03;15672528;28;20037;-51
2023/05/31 13:55:14;;;;;;;0.40;0.20;;;;;;;27.74;21.25;101763.28;15659839;28;20453;-49
2023/05/31 14:02:47;;;;;;;1.00;0.40;;;;;;;27.59;21.49;101756.06;15679388;28;20087;-49
2023/05/31 14:10:21;;;;;;;0.45;0.28;;;;;;;27.68;21.94;101743.22;15680576;28;20056;-50
2023/05/31 14:17:58;;;;;;;0.47;0.30;;;;;;;27.73;21.56;101731.31;15680184;28;20124;-51
2023/05/31 14:25:32;;;;;;;0.43;0.20;;;;;;;27.15;22.18;101721.44;15662055;28;20059;-50
2023/05/31 14:33:05;;;;;;;0.22;0.10;;;;;;;27.40;23.19;101714.72;15662224;28;20280;-49
2023/05/31 14:40:39;;;;;;;0.22;0.13;;;;;;;26.53;23.54;101711.50;15679710;28;20129;-50
2023/05/31 14:48:12;;;;;;;1.17;0.15;;;;;;;26.20;23.97;101692.84;15657588;28;20044;-51
2023/05/31 14:55:46;;;;;;;0.17;0.17;;;;;;;26.47;24.56;101690.66;15643615;28;20111;-50
2023/05/31 15:03:19;;;;;;;2.13;0.17;;;;;;;27.07;23.50;101683.50;15667846;28;20071;-51
2023/05/31 15:10:53;;;;;;;0.20;0.13;;;;;;;26.90;24.28;101680.44;15633518;28;20057;-50
2023/05/31 15:18:26;;;;;;;0.10;0.10;;;;;;;26.86;22.84;101671.13;15650162;28;20045;-49
2023/05/31 15:26:00;;;;;;;0.68;0.08;;;;;;;26.22;23.18;101670.56;15673327;28;20127;-50
2023/05/31 15:33:32;;;;;;;0.50;0.25;;;;;;;26.04;21.95;101663.06;15670927;28;20099;-49
2023/05/31 15:41:06;;;;;;;0.38;0.20;;;;;;;26.27;22.54;101653.97;15666389;28;20080;-48
2023/05/31 15:48:39;;;;;;;0.10;0.00;;;;;;;26.44;21.34;101654.34;15657698;28;20051;-48
2023/05/31 15:56:13;;;;;;;1.00;0.35;;;;;;;26.11;21.88;101609.31;15666479;28;20049;-50
2023/05/31 16:03:47;;;;;;;0.28;0.20;;;;;;;25.82;22.37;101627.78;15654721;28;20041;-48
2023/05/31 16:11:21;;;;;;;0.10;0.10;;;;;;;25.49;22.06;101621.22;15644302;28;20128;-52
2023/05/31 16:18:55;;;;;;;0.57;0.30;;;;;;;25.10;22.10;101603.69;15605499;28;20142;-49
2023/05/31 16:26:30;;;;;;;0.38;0.30;;;;;;;25.70;21.36;101600.69;15662384;28;20116;-52
2023/05/31 16:34:02;;;;;;;0.38;0.30;;;;;;;25.87;22.42;101589.22;15597106;28;1106332;-54
2023/05/31 16:41:36;;;;;;;0.47;0.22;;;;;;;26.17;23.15;101588.88;15651797;28;20056;-53
2023/05/31 16:49:10;;;;;;;0.22;0.10;;;;;;;25.46;23.58;101595.16;15614291;28;20113;-51
2023/05/31 16:56:44;;;;;;;0.40;0.10;;;;;;;25.05;22.41;101589.16;15663886;28;20049;-51
2023/05/31 17:04:17;;;;;;;0.20;0.10;;;;;;;25.28;22.42;101573.88;15654134;28;20060;-50
2023/05/31 17:11:51;;;;;;;0.30;0.10;;;;;;;25.13;22.72;101574.81;15657323;28;20372;-55
2023/05/31 17:19:24;;;;;;;0.08;0.08;;;;;;;24.36;24.84;101572.56;15646156;28;20795;-51
2023/05/31 17:26:59;;;;;;;2.65;0.25;;;;;;;24.73;23.98;101565.75;15652193;28;20113;-50
2023/05/31 17:34:32;;;;;;;1.67;0.73;;;;;;;24.71;26.01;101551.47;15649868;28;20049;-51
2023/05/31 17:42:07;;;;;;;3.97;0.73;;;;;;;24.38;25.98;101545.66;15666712;28;20083;-54
2023/05/31 17:49:40;;;;;;;3.63;0.98;;;;;;;24.26;27.79;101536.94;15664210;28;20045;-55
2023/05/31 17:57:14;;;;;;;0.17;0.17;;;;;;;24.48;26.34;101527.47;15669965;28;20065;-52
2023/05/31 18:04:47;;;;;;;0.28;0.10;;;;;;;24.21;27.12;101527.91;15666876;28;20448;-51
2023/05/31 18:12:21;;;;;;;0.10;0.00;;;;;;;24.11;27.58;101520.56;15660380;28;20116;-51
2023/05/31 18:19:55;;;;;;;0.50;0.10;;;;;;;23.87;28.56;101512.13;15658446;28;20053;-49
2023/05/31 18:27:29;;;;;;;0.15;0.10;;;;;;;23.58;28.98;101501.81;15632330;28;20419;-53
2023/05/31 18:35:02;;;;;;;1.27;0.65;;;;;;;23.36;29.86;101496.69;15667987;28;20147;-51
2023/05/31 18:42:36;;;;;;;1.08;0.63;;;;;;;23.11;30.54;101502.19;15635847;28;20064;-50
2023/05/31 18:50:09;;;;;;;1.27;0.35;;;;;;;22.88;32.20;101495.31;15637980;28;20077;-49
2023/05/31 18:57:45;;;;;;;1.67;0.68;;;;;;;22.51;33.36;101482.72;15643245;28;20123;-51
2023/05/31 19:05:17;;;;;;;0.43;0.13;;;;;;;21.90;35.97;101480.63;15671472;28;20076;-50
2023/05/31 19:12:51;;;;;;;;;;;;;;;21.54;37.28;101478.81;15626086;28;20136;-52
2023/05/31 19:20:24;;;;;;;0.30;0.30;;;;;;;21.28;37.88;101477.84;15670139;28;19921;-51
2023/05/31 19:27:59;;;;;;;1.05;0.45;;;;;;;21.03;38.47;101473.00;15662342;28;20068;-50
2023/05/31 19:35:32;;;;;;;0.50;0.40;;;;;;;20.59;39.75;101476.78;15664670;28;20053;-53
2023/05/31 19:43:06;;;;;;;;;;;;;;;20.23;40.37;101474.75;15667736;28;20055;-49
2023/05/31 19:50:39;;;;;;;1.10;0.47;;;;;;;19.93;41.04;101488.88;15642248;28;19921;-49
2023/05/31 19:58:13;;;;;;;0.38;0.30;;;;;;;19.62;42.33;101489.28;15673100;28;20501;-51
2023/05/31 20:05:46;;;;;;;1.48;0.43;;;;;;;19.26;42.49;101496.13;15635598;28;20059;-52
2023/05/31 20:13:20;;;;;;;0.30;0.30;;;;;;;18.75;43.14;101495.31;15652659;28;20106;-51
2023/05/31 20:20:53;;;;;;;0.80;0.52;;;;;;;18.48;43.90;101488.81;15609064;28;20042;-50
2023/05/31 20:28:27;;;;;;;0.32;0.32;;;;;;;18.25;44.53;101484.31;15644213;28;20123;-49
2023/05/31 20:36:00;;;;;;;0.80;0.45;;;;;;;18.07;44.13;101472.56;15646097;28;20136;-52
2023/05/31 20:43:35;;;;;;;1.02;0.65;;;;;;;18.03;44.43;101459.72;15655765;28;20046;-55
2023/05/31 20:51:08;;;;;;;0.73;0.43;;;;;;;17.76;45.78;101454.00;15653730;28;20064;-52
2023/05/31 20:58:42;;;;;;;0.50;0.50;;;;;;;17.67;45.35;101456.25;15619496;28;20068;-51
2023/05/31 21:06:15;;;;;;;1.63;0.80;;;;;;;17.70;45.28;101452.22;15632019;28;20311;-50
2023/05/31 21:13:49;;;;;;;0.68;0.40;;;;;;;17.49;46.06;101453.72;15630945;28;20047;-51
2023/05/31 21:21:22;;;;;;;2.47;0.47;;;;;;;17.16;46.78;101457.00;15660972;28;20043;-52
2023/05/31 21:28:56;;;;;;;0.43;0.43;;;;;;;17.01;47.21;101461.03;15627057;28;20081;-52
2023/05/31 21:36:29;;;;;;;17.90;1.20;;;;;;;16.96;47.60;101449.25;15657516;28;20613;-51
2023/05/31 21:44:04;;;;;;;0.95;0.38;;;;;;;17.03;47.99;101447.25;15636752;28;20032;-51
2023/05/31 21:51:36;;;;;;;0.93;0.38;;;;;;;16.80;49.26;101440.75;15642121;28;20045;-52
2023/05/31 21:59:11;;;;;;;0.20;0.20;;;;;;;16.63;49.22;101444.34;15652136;28;20111;-52
2023/05/31 22:06:44;;;;;;;1.98;0.73;;;;;;;16.64;48.87;101443.28;15635370;28;20037;-52
2023/05/31 22:14:27;;;;;;;0.27;0.27;;;;;;;15.94;49.64;101441.16;15655700;28;20036;-54
2023/05/31 22:22:01;;;;;;;0.32;0.20;;;;;;;16.35;49.07;101439.56;15653109;28;20045;-51
2023/05/31 22:29:35;;;;;;;0.60;0.33;;;;;;;16.30;49.40;101438.38;15667005;28;20168;-49
2023/05/31 22:37:08;;;;;;;0.60;0.40;;;;;;;16.51;49.18;101449.75;15628676;28;20049;-52
2023/05/31 22:44:42;;;;;;;0.50;0.40;;;;;;;16.39;49.65;101448.88;15637005;28;20100;-51
2023/05/31 22:52:19;;;;;;;2.13;1.23;;;;;;;16.21;49.27;101450.59;15659239;28;20879;-50
2023/05/31 22:59:53;;;;;;;0.43;0.32;;;;;;;16.22;49.51;101446.81;15647831;28;20036;-54
2023/05/31 23:07:30;;;;;;;1.33;0.93;;;;;;;16.14;50.21;101441.75;15624389;28;20094;-51
2023/05/31 23:15:06;;;;;;;0.75;0.55;;;;;;;16.14;50.85;101438.22;15668039;28;20045;-49
2023/05/31 23:22:40;;;;;;;1.05;0.50;;;;;;;16.05;50.91;101443.13;15668171;28;20044;-51
2023/05/31 23:30:15;;;;;;;0.70;0.63;;;;;;;15.98;51.10;101440.47;15655481;28;20110;-49
2023/05/31 23:37:47;;;;;;;1.08;0.68;;;;;;;15.91;51.59;101447.06;15646504;28;20033;-48
2023/05/31 23:45:22;;;;;;;0.77;0.30;;;;;;;15.79;52.49;101447.00;15636674;28;20574;-48
2023/05/31 23:52:55;;;;;;;1.70;0.30;;;;;;;15.80;53.01;101445.94;15645131;28;20049;-49
